Terminal Aerodrome Forecast
Issued by NWS

Home | Current Version | Previous Version | Text Only | Print | Product List | Glossary On
Versions: 1 2 3 4 5 6 7 8 9 10 11 12 13 14 15 16 17 18 19 20 21 22 23 24 25 26 27 28 29 30 31 32 33 34 35 36 37 38 39 40 41
000
FTUS45 KCYS 251120
TAFLAR
TAF
KLAR 251120Z 2512/2612 27007KT 6SM BR SCT015 BKN050
     FM251500 31012KT P6SM VCSH BKN025
     FM251700 30012KT P6SM VCTS BKN050CB
     FM252100 30012KT P6SM -TSRA BKN040CB
     FM260100 28010KT P6SM SCT040 BKN100=

USA.gov is the U.S. government's official web portal to all federal, state and local government web resources and services.